Time;durP1;ratioP1;P1;durP2;ratioP2;P2;SDS_P1;SDS_P2;PMS_P1;PMS_P2;Temp;Humidity;BMP_temperature;BMP_pressure;BME280_temperature;BME280_humidity;BME280_pressure;Samples;Min_cycle;Max_cycle;Signal;HPM_P1;HPM_P2
2023/09/21 00:02:49;;;;;;;6.03;4.50;;;;;13.80;95615.00;;;;8351558;28;20274;-68
2023/09/21 00:06:53;;;;;;;8.55;5.07;;;;;13.80;95609.00;;;;8369902;28;20247;-68
2023/09/21 00:11:00;;;;;;;6.47;4.80;;;;;13.80;95613.00;;;;8348758;28;20506;-68
2023/09/21 00:15:07;;;;;;;7.10;4.68;;;;;13.80;95601.00;;;;8369869;28;20316;-68
2023/09/21 00:19:10;;;;;;;8.63;4.88;;;;;13.80;95593.00;;;;8369077;28;20579;-68
2023/09/21 00:23:14;;;;;;;8.73;5.78;;;;;13.70;95588.00;;;;8368288;28;20254;-68
2023/09/21 00:27:18;;;;;;;9.05;5.32;;;;;13.70;95587.00;;;;8367454;28;20633;-69
2023/09/21 00:31:21;;;;;;;7.80;4.72;;;;;13.60;95584.00;;;;8367946;28;20283;-70
2023/09/21 00:35:27;;;;;;;7.40;4.88;;;;;13.50;95591.00;;;;8368790;28;20247;-69
2023/09/21 00:39:34;;;;;;;6.40;4.35;;;;;13.50;95581.00;;;;8368400;28;20243;-69
2023/09/21 00:43:39;;;;;;;10.32;5.05;;;;;13.40;95574.00;;;;8369115;28;20192;-70
2023/09/21 00:47:49;;;;;;;5.78;4.78;;;;;13.40;95577.00;;;;8367935;28;20586;-69
2023/09/21 00:51:56;;;;;;;9.18;5.38;;;;;13.40;95570.00;;;;8366562;28;20193;-69
2023/09/21 00:56:08;;;;;;;14.27;5.75;;;;;13.30;95559.00;;;;8367878;28;20250;-69
2023/09/21 01:00:16;;;;;;;9.63;5.25;;;;;13.30;95558.00;;;;8367907;28;20196;-69
2023/09/21 01:04:21;;;;;;;14.95;5.55;;;;;13.40;95545.00;;;;8368467;28;20263;-69
2023/09/21 01:08:29;;;;;;;8.75;5.25;;;;;13.30;95543.00;;;;8368453;28;20580;-69
2023/09/21 01:12:35;;;;;;;7.38;5.05;;;;;13.30;95541.00;;;;8367360;28;20275;-69
2023/09/21 01:16:42;;;;;;;7.10;5.22;;;;;13.20;95535.00;;;;8367645;28;20270;-69
2023/09/21 01:20:47;;;;;;;7.22;4.90;;;;;13.20;95542.00;;;;8366852;28;20300;-69
2023/09/21 01:24:52;;;;;;;11.13;6.13;;;;;13.20;95535.00;;;;8368050;28;20193;-69
2023/09/21 01:28:59;;;;;;;16.65;6.10;;;;;13.20;95529.00;;;;8366577;28;20629;-69
2023/09/21 01:33:04;;;;;;;11.00;5.35;;;;;13.10;95530.00;;;;8367287;28;20207;-70
2023/09/21 01:37:11;;;;;;;10.38;5.30;;;;;13.10;95526.00;;;;8365276;28;20223;-69
2023/09/21 01:41:21;;;;;;;10.23;5.20;;;;;13.10;95519.00;;;;8367381;28;20192;-69
2023/09/21 01:45:25;;;;;;;10.05;6.15;;;;;13.00;95511.00;;;;8366176;28;20578;-69
2023/09/21 01:49:28;;;;;;;11.02;6.22;;;;;13.00;95502.00;;;;8367485;28;20249;-69
2023/09/21 01:53:34;;;;;;;11.77;6.22;;;;;13.00;95498.00;;;;8366157;28;20638;-70
2023/09/21 01:57:39;;;;;;;7.68;5.50;;;;;13.00;95485.00;;;;8365984;28;20220;-69
2023/09/21 02:01:50;;;;;;;11.88;6.35;;;;;13.00;95483.00;;;;8365909;28;20227;-70
2023/09/21 02:05:57;;;;;;;8.90;5.38;;;;;13.00;95483.00;;;;8366224;28;20294;-69
2023/09/21 02:10:09;;;;;;;8.30;4.63;;;;;12.90;95474.00;;;;8366184;28;20595;-69
2023/09/21 02:14:14;;;;;;;8.48;5.50;;;;;12.90;95474.00;;;;8365766;28;20239;-69
2023/09/21 02:18:19;;;;;;;9.45;5.45;;;;;12.90;95460.00;;;;8365956;28;20307;-69
2023/09/21 02:22:25;;;;;;;9.65;5.20;;;;;12.90;95454.00;;;;8365008;28;20253;-68
2023/09/21 02:26:28;;;;;;;12.13;5.22;;;;;12.80;95462.00;;;;8365113;28;20204;-68
2023/09/21 02:30:34;;;;;;;10.10;5.30;;;;;12.70;95448.00;;;;8364312;28;20224;-68
2023/09/21 02:34:42;;;;;;;10.63;5.50;;;;;12.60;95449.00;;;;8347296;28;20200;-69
2023/09/21 02:38:45;;;;;;;11.02;5.00;;;;;12.60;95452.00;;;;8364672;28;20686;-69
2023/09/21 02:42:50;;;;;;;9.20;5.78;;;;;12.60;95438.00;;;;8365192;28;20293;-69
2023/09/21 02:46:56;;;;;;;7.43;5.13;;;;;12.60;95439.00;;;;8364350;28;20242;-69
2023/09/21 02:51:03;;;;;;;7.47;5.05;;;;;12.60;95436.00;;;;8364936;28;20278;-68
2023/09/21 02:55:09;;;;;;;7.60;5.13;;;;;12.60;95434.00;;;;8347100;28;20204;-69
2023/09/21 02:59:13;;;;;;;10.98;5.28;;;;;12.50;95446.00;;;;8364513;28;20199;-68
2023/09/21 03:03:19;;;;;;;8.10;5.10;;;;;12.50;95437.00;;;;8346296;23;20229;-69
2023/09/21 03:07:23;;;;;;;10.75;5.22;;;;;12.50;95437.00;;;;8307677;28;20208;-69
2023/09/21 03:11:26;;;;;;;10.38;5.10;;;;;12.50;95437.00;;;;8322898;28;20207;-68
2023/09/21 03:15:30;;;;;;;10.30;4.82;;;;;12.40;95443.00;;;;8331322;28;20908;-69
2023/09/21 03:19:35;;;;;;;10.95;4.95;;;;;12.40;95443.00;;;;8314434;28;20647;-69
2023/09/21 03:23:39;;;;;;;9.57;4.55;;;;;12.30;95435.00;;;;8312790;28;20300;-69
2023/09/21 03:27:45;;;;;;;16.90;4.75;;;;;12.30;95438.00;;;;8307451;28;20208;-69
2023/09/21 03:31:55;;;;;;;8.55;4.68;;;;;12.40;95421.00;;;;8316079;28;20197;-69
2023/09/21 03:36:01;;;;;;;16.80;4.90;;;;;12.40;95426.00;;;;8318410;28;20670;-68
2023/09/21 03:40:07;;;;;;;8.52;5.63;;;;;12.40;95420.00;;;;8319168;28;20231;-68
2023/09/21 03:44:10;;;;;;;12.77;5.32;;;;;12.30;95413.00;;;;8308415;28;20204;-68
2023/09/21 03:48:13;;;;;;;9.27;5.82;;;;;12.40;95406.00;;;;8317853;28;20207;-68
2023/09/21 03:52:22;;;;;;;10.95;5.25;;;;;12.30;95397.00;;;;8314434;28;20896;-68
2023/09/21 03:56:26;;;;;;;12.18;5.03;;;;;12.30;95392.00;;;;8312982;28;20233;-68
2023/09/21 04:00:36;;;;;;;10.50;5.45;;;;;12.40;95389.00;;;;8309839;28;20296;-68
2023/09/21 04:04:43;;;;;;;8.35;5.13;;;;;12.30;95388.00;;;;8311272;28;20355;-68
2023/09/21 04:08:52;;;;;;;10.43;5.82;;;;;12.40;95376.00;;;;8317534;28;20597;-68
2023/09/21 04:12:56;;;;;;;13.20;6.32;;;;;12.40;95385.00;;;;8314244;28;20205;-68
2023/09/21 04:16:59;;;;;;;8.35;5.30;;;;;12.50;95378.00;;;;8310463;28;20379;-69
2023/09/21 04:21:08;;;;;;;9.73;5.65;;;;;12.50;95365.00;;;;8317838;28;20258;-68
2023/09/21 04:25:23;;;;;;;7.22;4.70;;;;;12.50;95369.00;;;;8314948;28;20660;-69
2023/09/21 04:29:26;;;;;;;7.40;5.03;;;;;12.50;95362.00;;;;8313364;28;20296;-69
2023/09/21 04:33:29;;;;;;;7.45;4.65;;;;;12.40;95363.00;;;;8304102;28;20969;-69
2023/09/21 04:37:38;;;;;;;7.70;4.90;;;;;12.30;95358.00;;;;8311151;28;20235;-69
2023/09/21 04:41:44;;;;;;;5.90;4.25;;;;;12.30;95352.00;;;;8316126;28;20236;-69
2023/09/21 04:45:54;;;;;;;7.22;4.78;;;;;12.30;95346.00;;;;8308867;28;20201;-69
2023/09/21 04:49:57;;;;;;;10.75;6.93;;;;;12.20;95345.00;;;;8315113;28;20351;-68
2023/09/21 04:54:00;;;;;;;8.73;5.38;;;;;12.30;95345.00;;;;8311743;28;20758;-69
2023/09/21 04:58:05;;;;;;;10.95;5.70;;;;;12.30;95338.00;;;;8312823;28;20229;-68
2023/09/21 05:02:09;;;;;;;8.50;5.40;;;;;12.40;95340.00;;;;8309617;28;20738;-69
2023/09/21 05:06:18;;;;;;;8.38;5.15;;;;;12.40;95332.00;;;;8312708;28;20205;-70
2023/09/21 05:10:23;;;;;;;10.30;5.95;;;;;12.40;95328.00;;;;8310050;28;20841;-72
2023/09/21 05:14:30;;;;;;;10.93;5.65;;;;;12.50;95332.00;;;;8303367;28;20542;-69
2023/09/21 05:18:35;;;;;;;10.68;6.10;;;;;12.50;95324.00;;;;8305587;28;20240;-72
2023/09/21 05:22:42;;;;;;;8.55;5.55;;;;;12.60;95336.00;;;;8313727;28;20214;-71
2023/09/21 05:26:47;;;;;;;9.85;5.53;;;;;12.70;95336.00;;;;8311146;28;20300;-71
2023/09/21 05:30:54;;;;;;;8.23;4.63;;;;;12.70;95335.00;;;;8305154;28;20209;-71
2023/09/21 05:35:00;;;;;;;8.35;4.90;;;;;12.80;95347.00;;;;8312211;28;20658;-71
2023/09/21 05:39:04;;;;;;;5.28;4.18;;;;;12.90;95349.00;;;;8310400;28;20240;-70
2023/09/21 05:43:07;;;;;;;7.03;4.55;;;;;13.00;95336.00;;;;8311767;28;20204;-71
2023/09/21 05:47:16;;;;;;;9.02;4.68;;;;;13.20;95335.00;;;;8311511;28;20206;-71
2023/09/21 05:51:20;;;;;;;10.30;4.72;;;;;13.40;95336.00;;;;8308893;28;20691;-70
2023/09/21 05:55:23;;;;;;;6.97;4.60;;;;;13.70;95337.00;;;;8306747;28;20200;-70
2023/09/21 05:59:31;;;;;;;10.02;4.78;;;;;14.00;95332.00;;;;8313117;28;20225;-69
2023/09/21 06:03:37;;;;;;;8.40;4.53;;;;;14.30;95332.00;;;;8299170;28;21024;-66
2023/09/21 06:07:44;;;;;;;6.68;4.28;;;;;14.50;95337.00;;;;8300457;28;20235;-66
2023/09/21 06:11:50;;;;;;;6.30;4.07;;;;;14.70;95324.00;;;;8304730;28;20240;-66
2023/09/21 06:15:54;;;;;;;6.93;4.07;;;;;14.80;95326.00;;;;8304051;28;20205;-66
2023/09/21 06:20:03;;;;;;;5.57;3.78;;;;;14.90;95336.00;;;;8302647;28;20225;-67
2023/09/21 06:24:11;;;;;;;5.53;4.38;;;;;15.00;95342.00;;;;8293478;28;20208;-65
2023/09/21 06:28:15;;;;;;;4.97;4.10;;;;;15.20;95342.00;;;;8304485;28;20209;-64
2023/09/21 06:32:19;;;;;;;6.78;3.78;;;;;15.40;95335.00;;;;8299230;28;20202;-66
2023/09/21 06:36:28;;;;;;;6.78;3.72;;;;;15.60;95335.00;;;;8302785;28;20283;-67
2023/09/21 06:40:37;;;;;;;6.68;4.15;;;;;15.90;95335.00;;;;8299188;28;20235;-65
2023/09/21 06:44:40;;;;;;;5.82;4.22;;;;;16.10;95334.00;;;;8300617;28;20320;-65
2023/09/21 06:48:45;;;;;;;4.55;3.90;;;;;16.30;95340.00;;;;8298023;28;20206;-66
2023/09/21 06:52:53;;;;;;;4.80;3.88;;;;;16.60;95332.00;;;;8294107;28;20264;-66
2023/09/21 06:57:08;;;;;;;5.05;3.75;;;;;16.90;95319.00;;;;8305327;28;20237;-65
2023/09/21 07:01:11;;;;;;;6.38;4.13;;;;;17.20;95326.00;;;;8293575;28;20205;-65
2023/09/21 07:05:24;;;;;;;9.00;4.32;;;;;17.50;95306.00;;;;8295532;28;20240;-66
2023/09/21 07:09:28;;;;;;;10.20;5.07;;;;;17.80;95310.00;;;;8299865;28;20301;-66
2023/09/21 07:13:32;;;;;;;6.35;4.78;;;;;18.10;95307.00;;;;8299998;28;20307;-65
2023/09/21 07:17:36;;;;;;;7.60;5.50;;;;;18.30;95299.00;;;;8302976;28;20296;-65
2023/09/21 07:21:42;;;;;;;9.07;5.45;;;;;18.50;95292.00;;;;8299025;28;20201;-65
2023/09/21 07:25:49;;;;;;;8.80;5.78;;;;;18.50;95290.00;;;;8290503;28;20202;-65
2023/09/21 07:29:55;;;;;;;9.90;6.10;;;;;18.70;95292.00;;;;8299151;28;20920;-64
2023/09/21 07:34:03;;;;;;;8.75;5.90;;;;;18.80;95292.00;;;;8290718;28;20230;-64
2023/09/21 07:38:06;;;;;;;9.60;6.40;;;;;19.00;95288.00;;;;8297206;28;20225;-63
2023/09/21 07:42:11;;;;;;;8.90;4.97;;;;;19.20;95287.00;;;;8301252;28;20201;-65
2023/09/21 07:46:14;;;;;;;9.10;5.00;;;;;19.20;95285.00;;;;8299752;28;20275;-66
2023/09/21 07:50:22;;;;;;;11.65;5.93;;;;;19.50;95282.00;;;;8299349;28;20216;-65
2023/09/21 07:54:29;;;;;;;7.53;5.13;;;;;19.80;95281.00;;;;8295035;28;20900;-66
2023/09/21 07:58:33;;;;;;;8.55;5.45;;;;;20.00;95282.00;;;;8306727;28;20252;-65
2023/09/21 08:02:39;;;;;;;8.88;5.00;;;;;20.20;95279.00;;;;8304212;28;20228;-65
2023/09/21 08:06:43;;;;;;;5.90;5.10;;;;;20.30;95287.00;;;;8307935;28;21083;-66
2023/09/21 08:10:46;;;;;;;6.57;5.03;;;;;20.20;95293.00;;;;8309026;28;20210;-66
2023/09/21 08:14:52;;;;;;;7.75;5.70;;;;;20.40;95281.00;;;;8309631;28;20200;-65
2023/09/21 08:19:02;;;;;;;9.55;5.07;;;;;20.70;95283.00;;;;8308975;28;20787;-66
2023/09/21 08:23:06;;;;;;;10.30;5.38;;;;;21.00;95286.00;;;;8306790;28;21027;-65
2023/09/21 08:27:11;;;;;;;6.68;5.05;;;;;21.20;95291.00;;;;8309227;28;20320;-65
2023/09/21 08:31:19;;;;;;;5.90;4.78;;;;;21.50;95285.00;;;;8311756;28;20206;-66
2023/09/21 08:35:23;;;;;;;6.18;4.35;;;;;22.00;95288.00;;;;8305746;28;20228;-66
2023/09/21 08:39:26;;;;;;;5.63;4.43;;;;;22.60;95287.00;;;;8300925;28;20232;-65
2023/09/21 08:43:30;;;;;;;7.50;5.43;;;;;23.10;95288.00;;;;8298160;28;20198;-66
2023/09/21 08:47:40;;;;;;;8.35;4.50;;;;;23.40;95284.00;;;;8299644;28;20189;-66
2023/09/21 08:51:48;;;;;;;9.93;4.80;;;;;23.80;95288.00;;;;8335027;28;20284;-67
2023/09/21 08:55:59;;;;;;;5.45;4.45;;;;;24.00;95288.00;;;;8334215;28;20596;-67
2023/09/21 09:00:11;;;;;;;4.90;4.32;;;;;24.30;95286.00;;;;8335067;28;20212;-68
2023/09/21 09:04:20;;;;;;;10.65;4.57;;;;;24.70;95294.00;;;;8332944;28;20316;-68
2023/09/21 09:08:26;;;;;;;7.65;4.85;;;;;25.40;95285.00;;;;8334775;28;20211;-68
2023/09/21 09:12:30;;;;;;;8.18;4.82;;;;;26.10;95281.00;;;;8333696;28;20534;-67
2023/09/21 09:16:33;;;;;;;8.88;5.15;;;;;26.80;95270.00;;;;8332473;28;20630;-67
2023/09/21 09:20:44;;;;;;;6.95;5.05;;;;;27.20;95273.00;;;;8333226;28;20221;-67
2023/09/21 09:24:48;;;;;;;9.70;5.32;;;;;27.30;95261.00;;;;8333185;28;20288;-68
2023/09/21 09:28:51;;;;;;;6.93;4.25;;;;;27.50;95260.00;;;;8328612;28;20292;-67
2023/09/21 09:32:55;;;;;;;7.85;4.90;;;;;27.80;95252.00;;;;8330418;28;20200;-68
2023/09/21 09:37:05;;;;;;;13.10;5.40;;;;;28.10;95251.00;;;;8331641;28;20182;-67
2023/09/21 09:41:12;;;;;;;5.65;5.13;;;;;28.20;95241.00;;;;8331596;28;20604;-66
2023/09/21 09:45:18;;;;;;;10.55;6.07;;;;;28.30;95245.00;;;;8329507;28;20233;-67
2023/09/21 09:49:30;;;;;;;16.58;6.88;;;;;28.40;95243.00;;;;8331281;28;20197;-67
2023/09/21 09:53:38;;;;;;;12.20;8.13;;;;;28.80;95242.00;;;;8330852;28;20622;-66
2023/09/21 09:57:47;;;;;;;11.25;4.68;;;;;28.90;95242.00;;;;8332318;28;20186;-67
2023/09/21 10:01:51;;;;;;;13.63;6.00;;;;;29.00;95239.00;;;;8331022;28;20252;-67
2023/09/21 10:05:55;;;;;;;5.70;4.75;;;;;29.20;95233.00;;;;8333045;28;20690;-67
2023/09/21 10:10:00;;;;;;;6.97;4.70;;;;;29.30;95224.00;;;;8331879;28;20611;-67
2023/09/21 10:14:11;;;;;;;5.82;4.93;;;;;29.20;95226.00;;;;8331882;28;20200;-67
2023/09/21 10:18:29;;;;;;;8.52;4.35;;;;;29.30;95223.00;;;;8332569;28;20291;-67
2023/09/21 10:22:36;;;;;;;6.78;4.30;;;;;29.40;95216.00;;;;8330541;28;20684;-67
2023/09/21 10:26:45;;;;;;;6.28;4.45;;;;;29.30;95209.00;;;;8331021;28;20224;-67
2023/09/21 10:30:48;;;;;;;5.53;4.55;;;;;29.30;95210.00;;;;8331926;28;20188;-67
2023/09/21 10:34:54;;;;;;;6.38;4.20;;;;;29.20;95204.00;;;;8327029;28;20232;-67
2023/09/21 10:39:24;;;;;;;5.45;4.90;;;;;29.10;95189.00;;;;8331053;28;20209;-66
2023/09/21 10:43:47;;;;;;;4.60;4.13;;;;;29.20;95190.00;;;;8331035;28;20229;-67
2023/09/21 10:47:51;;;;;;;7.20;4.15;;;;;29.10;95180.00;;;;8330552;28;20197;-67
2023/09/21 10:51:59;;;;;;;5.93;4.20;;;;;29.00;95176.00;;;;8330764;28;20197;-69
2023/09/21 10:56:05;;;;;;;8.55;4.68;;;;;29.20;95175.00;;;;8330810;28;20186;-67
2023/09/21 11:00:16;;;;;;;5.28;4.15;;;;;29.00;95165.00;;;;8330109;28;20220;-67
2023/09/21 11:04:20;;;;;;;5.40;3.75;;;;;29.00;95170.00;;;;8332547;28;21215;-67
2023/09/21 11:08:25;;;;;;;4.43;3.25;;;;;28.90;95163.00;;;;8330792;28;20284;-67
2023/09/21 11:12:33;;;;;;;5.75;3.65;;;;;28.90;95156.00;;;;8336394;28;20284;-68
2023/09/21 11:16:39;;;;;;;7.45;3.50;;;;;29.00;95153.00;;;;8337953;28;20288;-68
2023/09/21 11:20:44;;;;;;;7.22;3.35;;;;;29.10;95157.00;;;;8338104;28;20649;-71
2023/09/21 11:24:48;;;;;;;3.60;3.30;;;;;29.00;95143.00;;;;8329875;28;20613;-68
2023/09/21 11:28:58;;;;;;;7.85;3.63;;;;;29.10;95137.00;;;;8332893;28;20243;-71
2023/09/21 11:33:05;;;;;;;4.88;3.05;;;;;29.20;95128.00;;;;8334589;28;20519;-70
2023/09/21 11:37:10;;;;;;;3.35;2.92;;;;;29.10;95124.00;;;;8335105;28;20288;-71
2023/09/21 11:41:16;;;;;;;4.88;2.60;;;;;29.10;95118.00;;;;8336145;28;20678;-71
2023/09/21 11:45:24;;;;;;;3.33;3.03;;;;;29.00;95117.00;;;;8336427;28;20194;-71
2023/09/21 11:49:39;;;;;;;4.25;2.90;;;;;28.80;95102.00;;;;8336385;28;20189;-71
2023/09/21 11:53:44;;;;;;;5.50;3.20;;;;;28.60;95100.00;;;;8336636;28;20578;-70
2023/09/21 11:57:49;;;;;;;7.45;3.20;;;;;28.30;95108.00;;;;8338162;28;20479;-70
2023/09/21 12:01:56;;;;;;;4.03;2.90;;;;;28.40;95091.00;;;;8335372;28;20311;-70
2023/09/21 12:06:03;;;;;;;5.97;2.92;;;;;28.40;95089.00;;;;8336818;28;20702;-70
2023/09/21 12:10:11;;;;;;;4.18;2.67;;;;;28.40;95084.00;;;;8318860;28;20197;-70
2023/09/21 12:14:16;;;;;;;4.93;2.70;;;;;28.40;95073.00;;;;8334645;28;20286;-70
2023/09/21 12:18:23;;;;;;;3.00;2.80;;;;;28.40;95063.00;;;;8336296;28;20581;-70
2023/09/21 12:22:29;;;;;;;4.20;2.88;;;;;28.40;95055.00;;;;8335692;28;20284;-69
2023/09/21 12:26:36;;;;;;;2.55;2.35;;;;;28.50;95049.00;;;;8336303;28;20205;-70
2023/09/21 12:30:42;;;;;;;4.15;2.60;;;;;28.40;95051.00;;;;8336127;28;20669;-71
2023/09/21 12:34:49;;;;;;;2.58;2.22;;;;;28.40;95054.00;;;;8335449;28;20189;-72
2023/09/21 12:38:54;;;;;;;2.80;2.60;;;;;28.40;95046.00;;;;8335066;28;20290;-71
2023/09/21 12:43:00;;;;;;;3.35;2.97;;;;;28.50;95043.00;;;;8335594;28;20267;-70
2023/09/21 12:47:09;;;;;;;2.90;2.40;;;;;28.50;95046.00;;;;8335893;28;20229;-70
2023/09/21 12:51:16;;;;;;;2.38;2.08;;;;;28.60;95040.00;;;;8334436;28;20212;-71
2023/09/21 12:55:26;;;;;;;3.78;2.50;;;;;28.60;95034.00;;;;8334812;28;20542;-71
2023/09/21 12:59:30;;;;;;;3.20;2.08;;;;;28.60;95033.00;;;;8335144;28;20222;-72
2023/09/21 13:03:35;;;;;;;2.50;2.35;;;;;28.70;95032.00;;;;8334915;28;20272;-71
2023/09/21 13:07:44;;;;;;;5.13;2.38;;;;;28.60;95022.00;;;;8334314;28;20194;-70
2023/09/21 13:11:50;;;;;;;5.50;2.60;;;;;28.60;95018.00;;;;8335153;28;20200;-70
2023/09/21 13:16:01;;;;;;;2.95;2.20;;;;;28.70;95020.00;;;;8334915;28;20190;-70
2023/09/21 13:20:16;;;;;;;3.13;2.45;;;;;28.80;95012.00;;;;8333773;28;20658;-71
2023/09/21 13:24:21;;;;;;;2.47;2.33;;;;;28.90;94999.00;;;;8334179;28;20190;-71
2023/09/21 13:28:26;;;;;;;4.82;2.22;;;;;29.00;94993.00;;;;8334831;28;20606;-68
2023/09/21 13:32:29;;;;;;;2.35;2.00;;;;;29.10;94989.00;;;;8333833;28;20189;-68
2023/09/21 13:36:35;;;;;;;4.30;2.00;;;;;29.20;94990.00;;;;8334012;28;20373;-68
2023/09/21 13:40:41;;;;;;;2.85;2.10;;;;;29.20;94986.00;;;;8331839;28;20279;-69
2023/09/21 13:44:48;;;;;;;3.05;2.35;;;;;29.20;94990.00;;;;8333414;28;20197;-68
2023/09/21 13:48:53;;;;;;;2.53;2.05;;;;;29.30;94986.00;;;;8332333;28;20228;-68
2023/09/21 13:52:56;;;;;;;2.65;2.28;;;;;29.50;94983.00;;;;8331575;28;20197;-68
2023/09/21 13:57:00;;;;;;;4.95;2.15;;;;;29.80;94988.00;;;;8332835;28;20296;-68
2023/09/21 14:01:08;;;;;;;4.40;2.00;;;;;30.00;94973.00;;;;8333293;28;20592;-68
2023/09/21 14:05:13;;;;;;;3.85;2.00;;;;;30.20;94966.00;;;;8334001;28;20229;-67
2023/09/21 14:09:19;;;;;;;4.40;2.08;;;;;30.30;94957.00;;;;8332747;28;20193;-67
2023/09/21 14:13:23;;;;;;;2.40;2.13;;;;;30.40;94958.00;;;;8331921;28;20205;-68
2023/09/21 14:17:30;;;;;;;3.97;2.17;;;;;30.60;94965.00;;;;8332972;28;20194;-68
2023/09/21 14:21:35;;;;;;;2.78;1.95;;;;;30.60;94957.00;;;;8332184;28;20236;-68
2023/09/21 14:25:43;;;;;;;4.20;2.15;;;;;30.70;94955.00;;;;8331757;28;20185;-69
2023/09/21 14:29:46;;;;;;;2.17;1.90;;;;;30.80;94947.00;;;;8332547;28;20667;-69
2023/09/21 14:33:55;;;;;;;2.33;1.90;;;;;30.90;94946.00;;;;8332814;28;20280;-68
2023/09/21 14:38:00;;;;;;;3.13;2.10;;;;;30.90;94936.00;;;;8331791;28;20557;-68
2023/09/21 14:42:03;;;;;;;2.95;1.98;;;;;30.80;94935.00;;;;8332359;28;20247;-69
2023/09/21 14:46:11;;;;;;;4.13;2.22;;;;;30.80;94931.00;;;;8331235;28;20209;-69
2023/09/21 14:50:20;;;;;;;2.25;1.80;;;;;30.80;94926.00;;;;8332192;28;20185;-70
2023/09/21 14:54:29;;;;;;;2.20;1.70;;;;;30.70;94917.00;;;;8331341;28;20233;-69
2023/09/21 14:58:33;;;;;;;6.32;2.22;;;;;30.70;94928.00;;;;8331967;28;20225;-69
2023/09/21 15:02:39;;;;;;;3.33;1.90;;;;;30.70;94924.00;;;;8331088;28;20303;-68
2023/09/21 15:06:43;;;;;;;2.20;2.10;;;;;30.60;94921.00;;;;8331816;28;20237;-69
2023/09/21 15:10:47;;;;;;;2.33;2.10;;;;;30.60;94916.00;;;;8331174;28;20201;-69
2023/09/21 15:14:50;;;;;;;3.40;2.45;;;;;30.40;94917.00;;;;8331122;28;20197;-70
2023/09/21 15:18:58;;;;;;;6.30;2.08;;;;;30.20;94912.00;;;;8331719;28;20201;-68
2023/09/21 15:23:04;;;;;;;2.60;2.00;;;;;30.00;94917.00;;;;8331762;28;20312;-69
2023/09/21 15:27:08;;;;;;;3.60;2.20;;;;;29.80;94913.00;;;;8331141;28;20703;-68
2023/09/21 15:31:11;;;;;;;2.17;2.08;;;;;29.70;94913.00;;;;8331396;28;20189;-68
2023/09/21 15:35:16;;;;;;;2.38;2.22;;;;;29.50;94893.00;;;;8331177;28;20639;-67
2023/09/21 15:39:24;;;;;;;2.22;2.00;;;;;29.30;94881.00;;;;8330557;28;20677;-67
2023/09/21 15:43:30;;;;;;;2.13;2.03;;;;;29.10;94883.00;;;;8331075;28;20221;-68
2023/09/21 15:47:37;;;;;;;2.10;2.00;;;;;28.90;94885.00;;;;8330672;28;20185;-68
2023/09/21 15:51:41;;;;;;;2.25;2.05;;;;;28.80;94879.00;;;;8330821;28;20199;-68
2023/09/21 15:55:48;;;;;;;2.53;2.05;;;;;28.60;94883.00;;;;8330482;28;20250;-68
2023/09/21 15:59:51;;;;;;;2.95;1.90;;;;;28.40;94876.00;;;;8336573;28;20192;-68
2023/09/21 16:04:04;;;;;;;3.63;2.00;;;;;28.20;94874.00;;;;8336937;28;20546;-68
2023/09/21 16:08:08;;;;;;;2.05;1.80;;;;;28.10;94873.00;;;;8336905;28;20178;-68
2023/09/21 16:12:13;;;;;;;1.90;1.80;;;;;27.90;94874.00;;;;8337193;28;20200;-68
2023/09/21 16:16:17;;;;;;;2.50;2.30;;;;;27.70;94884.00;;;;8334885;28;20229;-68
2023/09/21 16:20:24;;;;;;;3.00;1.98;;;;;27.50;94885.00;;;;8335686;28;20232;-68
2023/09/21 16:24:27;;;;;;;6.47;2.28;;;;;27.40;94880.00;;;;8335375;28;20478;-67
2023/09/21 16:28:34;;;;;;;4.07;2.00;;;;;27.20;94879.00;;;;8334792;28;20193;-67
2023/09/21 16:32:40;;;;;;;11.63;2.42;;;;;27.00;94882.00;;;;8336079;28;20602;-68
2023/09/21 16:36:47;;;;;;;5.53;3.13;;;;;26.80;94876.00;;;;8335069;28;20202;-67
2023/09/21 16:40:54;;;;;;;9.30;3.25;;;;;26.60;94879.00;;;;8333143;28;20225;-67
2023/09/21 16:45:00;;;;;;;3.90;2.53;;;;;26.40;94876.00;;;;8334782;28;20257;-67
2023/09/21 16:49:06;;;;;;;10.93;2.53;;;;;26.20;94881.00;;;;8336105;28;20228;-67
2023/09/21 16:53:11;;;;;;;4.57;2.60;;;;;26.00;94869.00;;;;8335737;28;20657;-67
2023/09/21 16:57:15;;;;;;;2.60;2.38;;;;;25.80;94865.00;;;;8333392;28;20266;-68
2023/09/21 17:01:20;;;;;;;4.07;2.58;;;;;25.60;94866.00;;;;8332395;28;20719;-67
2023/09/21 17:05:23;;;;;;;2.67;2.20;;;;;25.50;94855.00;;;;8333669;28;20217;-68
2023/09/21 17:09:31;;;;;;;2.72;2.50;;;;;25.30;94861.00;;;;8331409;28;20194;-68
2023/09/21 17:13:37;;;;;;;3.85;2.30;;;;;25.20;94861.00;;;;8334666;28;20205;-68
2023/09/21 17:17:43;;;;;;;6.15;2.20;;;;;25.10;94862.00;;;;8332790;28;20638;-68
2023/09/21 17:21:46;;;;;;;7.78;2.10;;;;;24.90;94856.00;;;;8334295;28;20225;-68
2023/09/21 17:25:50;;;;;;;3.67;2.17;;;;;24.80;94851.00;;;;8332876;28;20212;-68
2023/09/21 17:29:54;;;;;;;2.80;2.55;;;;;24.80;94849.00;;;;8333574;28;20197;-68
2023/09/21 17:34:02;;;;;;;3.97;2.50;;;;;24.70;94848.00;;;;8334069;28;20654;-69
2023/09/21 17:38:07;;;;;;;2.85;2.22;;;;;24.60;94856.00;;;;8333904;28;20197;-67
2023/09/21 17:42:12;;;;;;;26.40;3.65;;;;;24.50;94859.00;;;;8333939;28;20248;-67
2023/09/21 17:46:17;;;;;;;15.32;2.97;;;;;24.40;94849.00;;;;8332343;28;20209;-69
2023/09/21 17:50:25;;;;;;;6.43;2.70;;;;;24.30;94842.00;;;;8333755;28;20560;-68
2023/09/21 17:54:29;;;;;;;4.22;2.53;;;;;24.10;94845.00;;;;8333421;28;20579;-67
2023/09/21 17:58:34;;;;;;;4.20;2.22;;;;;24.00;94848.00;;;;8334180;28;20259;-66
2023/09/21 18:02:38;;;;;;;3.30;2.45;;;;;23.80;94854.00;;;;8332956;28;20248;-66
2023/09/21 18:06:50;;;;;;;4.60;2.13;;;;;23.60;94857.00;;;;8333341;28;20186;-66
2023/09/21 18:11:03;;;;;;;5.28;2.30;;;;;23.40;94854.00;;;;8332617;28;20323;-66
2023/09/21 18:15:09;;;;;;;5.75;2.45;;;;;23.20;94851.00;;;;8331100;28;20194;-66
2023/09/21 18:19:12;;;;;;;3.85;2.35;;;;;23.10;94860.00;;;;8331514;28;20201;-67
2023/09/21 18:23:22;;;;;;;6.82;2.70;;;;;22.90;94852.00;;;;8332832;28;20233;-66
2023/09/21 18:27:25;;;;;;;4.45;2.72;;;;;22.80;94860.00;;;;8332470;28;20260;-68
2023/09/21 18:31:29;;;;;;;5.38;2.75;;;;;22.60;94863.00;;;;8332283;28;20196;-68
2023/09/21 18:35:35;;;;;;;5.85;2.33;;;;;22.40;94853.00;;;;8333051;28;20626;-69
2023/09/21 18:39:42;;;;;;;4.32;2.83;;;;;22.30;94850.00;;;;8330617;28;20288;-68
2023/09/21 18:43:46;;;;;;;4.47;2.80;;;;;22.10;94849.00;;;;8331940;28;20233;-67
2023/09/21 18:47:50;;;;;;;4.15;2.50;;;;;22.00;94851.00;;;;8331854;28;20538;-69
2023/09/21 18:51:57;;;;;;;6.97;3.33;;;;;21.90;94839.00;;;;8331803;28;20247;-67
2023/09/21 18:56:01;;;;;;;2.70;2.40;;;;;21.80;94836.00;;;;8332461;28;20594;-67
2023/09/21 19:00:06;;;;;;;7.80;3.00;;;;;21.70;94836.00;;;;8332551;28;20642;-68
2023/09/21 19:04:14;;;;;;;3.80;2.50;;;;;21.60;94827.00;;;;8331572;28;20236;-68
2023/09/21 19:08:20;;;;;;;4.28;2.67;;;;;21.60;94831.00;;;;8332082;28;20190;-68
2023/09/21 19:12:24;;;;;;;4.68;2.83;;;;;21.50;94832.00;;;;8331804;28;20201;-68
2023/09/21 19:16:27;;;;;;;5.10;2.70;;;;;21.40;94830.00;;;;8331011;28;20204;-68
2023/09/21 19:20:32;;;;;;;8.10;2.95;;;;;21.40;94834.00;;;;8331681;28;20216;-68
2023/09/21 19:24:38;;;;;;;4.97;2.65;;;;;21.30;94831.00;;;;8331204;28;20224;-68
2023/09/21 19:28:45;;;;;;;3.13;2.80;;;;;21.20;94838.00;;;;8331075;28;20217;-68
2023/09/21 19:32:49;;;;;;;5.82;2.90;;;;;20.90;94837.00;;;;8336367;28;20198;-68
2023/09/21 19:36:53;;;;;;;4.00;2.88;;;;;20.60;94830.00;;;;8336774;28;20233;-68
2023/09/21 19:40:58;;;;;;;5.75;3.15;;;;;20.20;94830.00;;;;8337887;28;20272;-67
2023/09/21 19:45:09;;;;;;;7.20;3.22;;;;;19.90;94824.00;;;;8335919;28;20258;-67
2023/09/21 19:49:15;;;;;;;6.68;3.17;;;;;19.70;94820.00;;;;8337039;28;20206;-68
2023/09/21 19:53:23;;;;;;;5.63;3.35;;;;;19.40;94805.00;;;;8337601;28;20232;-69
2023/09/21 19:57:27;;;;;;;8.65;3.42;;;;;19.30;94804.00;;;;8337214;28;20626;-69
2023/09/21 20:01:32;;;;;;;6.60;3.60;;;;;19.30;94802.00;;;;8336953;28;20217;-69
2023/09/21 20:05:40;;;;;;;8.52;3.65;;;;;19.30;94790.00;;;;8334780;28;20185;-67
2023/09/21 20:09:43;;;;;;;4.82;3.00;;;;;19.40;94794.00;;;;8336466;28;20284;-68
2023/09/21 20:13:46;;;;;;;10.98;4.22;;;;;19.50;94790.00;;;;8336028;28;20670;-69
2023/09/21 20:17:53;;;;;;;9.07;4.00;;;;;19.50;94794.00;;;;8336472;28;20618;-68
2023/09/21 20:21:57;;;;;;;7.03;4.40;;;;;19.50;94796.00;;;;8337034;28;20231;-69
2023/09/21 20:26:02;;;;;;;12.00;4.63;;;;;19.50;94793.00;;;;8335985;28;20247;-69
2023/09/21 20:30:10;;;;;;;7.30;4.22;;;;;19.50;94782.00;;;;8335228;28;20235;-68